sensor_id;sensor_type;location;lat;lon;timestamp;temperature;humidity
33093;DHT22;19456;46.104;12.908;2023-03-26T00:00:04;8.00;99.90
33093;DHT22;19456;46.104;12.908;2023-03-26T00:02:30;8.00;99.90
33093;DHT22;19456;46.104;12.908;2023-03-26T00:04:56;8.20;99.90
33093;DHT22;19456;46.104;12.908;2023-03-26T00:07:21;8.40;99.90
33093;DHT22;19456;46.104;12.908;2023-03-26T00:09:47;8.50;99.90
33093;DHT22;19456;46.104;12.908;2023-03-26T00:12:12;8.70;99.90
33093;DHT22;19456;46.104;12.908;2023-03-26T00:14:38;8.70;99.90
33093;DHT22;19456;46.104;12.908;2023-03-26T00:17:05;8.70;99.90
33093;DHT22;19456;46.104;12.908;2023-03-26T00:19:32;8.70;99.90
33093;DHT22;19456;46.104;12.908;2023-03-26T00:21:58;8.70;99.90
33093;DHT22;19456;46.104;12.908;2023-03-26T00:24:23;8.70;99.90
33093;DHT22;19456;46.104;12.908;2023-03-26T00:26:53;8.90;99.90
33093;DHT22;19456;46.104;12.908;2023-03-26T00:29:19;9.10;99.90
33093;DHT22;19456;46.104;12.908;2023-03-26T00:31:44;9.10;99.90
33093;DHT22;19456;46.104;12.908;2023-03-26T00:34:10;9.10;99.90
33093;DHT22;19456;46.104;12.908;2023-03-26T00:36:36;9.10;99.90
33093;DHT22;19456;46.104;12.908;2023-03-26T00:39:02;9.10;99.90
33093;DHT22;19456;46.104;12.908;2023-03-26T00:41:30;8.80;99.90
33093;DHT22;19456;46.104;12.908;2023-03-26T00:43:57;8.70;99.90
33093;DHT22;19456;46.104;12.908;2023-03-26T00:46:27;8.70;99.90
33093;DHT22;19456;46.104;12.908;2023-03-26T00:48:53;8.70;99.90
33093;DHT22;19456;46.104;12.908;2023-03-26T00:51:19;8.80;99.90
33093;DHT22;19456;46.104;12.908;2023-03-26T00:53:45;8.70;99.90
33093;DHT22;19456;46.104;12.908;2023-03-26T00:56:12;8.60;99.90
33093;DHT22;19456;46.104;12.908;2023-03-26T00:58:37;8.40;99.90
33093;DHT22;19456;46.104;12.908;2023-03-26T01:01:04;8.30;99.90
33093;DHT22;19456;46.104;12.908;2023-03-26T01:03:31;8.30;99.90
33093;DHT22;19456;46.104;12.908;2023-03-26T01:06:04;8.40;99.90
33093;DHT22;19456;46.104;12.908;2023-03-26T01:08:38;8.30;99.90
33093;DHT22;19456;46.104;12.908;2023-03-26T01:11:07;8.40;99.90
33093;DHT22;19456;46.104;12.908;2023-03-26T01:13:39;8.30;99.90
33093;DHT22;19456;46.104;12.908;2023-03-26T01:16:06;8.30;99.90
33093;DHT22;19456;46.104;12.908;2023-03-26T01:18:34;8.30;99.90
33093;DHT22;19456;46.104;12.908;2023-03-26T01:21:05;8.20;99.90
33093;DHT22;19456;46.104;12.908;2023-03-26T01:23:46;8.10;99.90
33093;DHT22;19456;46.104;12.908;2023-03-26T01:28:38;8.20;99.90
33093;DHT22;19456;46.104;12.908;2023-03-26T01:31:11;8.30;99.90
33093;DHT22;19456;46.104;12.908;2023-03-26T01:33:41;8.40;99.90
33093;DHT22;19456;46.104;12.908;2023-03-26T01:36:13;8.40;99.90
33093;DHT22;19456;46.104;12.908;2023-03-26T01:39:14;8.50;99.90
33093;DHT22;19456;46.104;12.908;2023-03-26T01:46:26;8.60;99.90
33093;DHT22;19456;46.104;12.908;2023-03-26T01:48:52;8.50;99.90
33093;DHT22;19456;46.104;12.908;2023-03-26T01:51:27;8.40;99.90
33093;DHT22;19456;46.104;12.908;2023-03-26T01:53:53;8.50;99.90
33093;DHT22;19456;46.104;12.908;2023-03-26T01:56:38;8.50;99.90
33093;DHT22;19456;46.104;12.908;2023-03-26T02:01:34;8.60;99.90
33093;DHT22;19456;46.104;12.908;2023-03-26T02:04:10;8.60;99.90
33093;DHT22;19456;46.104;12.908;2023-03-26T02:06:43;8.80;99.90
33093;DHT22;19456;46.104;12.908;2023-03-26T02:09:13;9.00;99.90
33093;DHT22;19456;46.104;12.908;2023-03-26T02:11:41;9.10;99.90
33093;DHT22;19456;46.104;12.908;2023-03-26T02:14:07;9.10;99.90
33093;DHT22;19456;46.104;12.908;2023-03-26T02:16:34;9.10;99.90
33093;DHT22;19456;46.104;12.908;2023-03-26T02:18:59;8.70;99.90
33093;DHT22;19456;46.104;12.908;2023-03-26T02:21:28;8.50;99.90
33093;DHT22;19456;46.104;12.908;2023-03-26T02:23:58;8.30;99.90
33093;DHT22;19456;46.104;12.908;2023-03-26T02:26:27;8.20;99.90
33093;DHT22;19456;46.104;12.908;2023-03-26T02:28:53;8.10;99.90
33093;DHT22;19456;46.104;12.908;2023-03-26T02:31:19;8.10;99.90
33093;DHT22;19456;46.104;12.908;2023-03-26T02:33:46;8.20;99.90
33093;DHT22;19456;46.104;12.908;2023-03-26T02:36:14;8.20;99.90
33093;DHT22;19456;46.104;12.908;2023-03-26T02:38:42;8.30;99.90
33093;DHT22;19456;46.104;12.908;2023-03-26T02:41:07;8.20;99.90
33093;DHT22;19456;46.104;12.908;2023-03-26T02:43:33;8.40;99.90
33093;DHT22;19456;46.104;12.908;2023-03-26T02:45:58;8.60;99.90
33093;DHT22;19456;46.104;12.908;2023-03-26T02:48:24;8.70;99.90
33093;DHT22;19456;46.104;12.908;2023-03-26T02:50:50;8.70;99.90
33093;DHT22;19456;46.104;12.908;2023-03-26T02:53:18;8.70;99.90
33093;DHT22;19456;46.104;12.908;2023-03-26T02:55:46;8.70;99.90
33093;DHT22;19456;46.104;12.908;2023-03-26T02:58:11;8.60;99.90
33093;DHT22;19456;46.104;12.908;2023-03-26T03:00:42;8.50;99.90
33093;DHT22;19456;46.104;12.908;2023-03-26T03:03:08;8.50;99.90
33093;DHT22;19456;46.104;12.908;2023-03-26T03:05:33;8.60;99.90
33093;DHT22;19456;46.104;12.908;2023-03-26T03:08:02;8.50;99.90
33093;DHT22;19456;46.104;12.908;2023-03-26T03:10:28;8.40;99.90
33093;DHT22;19456;46.104;12.908;2023-03-26T03:12:57;8.40;99.90
33093;DHT22;19456;46.104;12.908;2023-03-26T03:15:22;8.50;99.90
33093;DHT22;19456;46.104;12.908;2023-03-26T03:17:48;8.50;99.90
33093;DHT22;19456;46.104;12.908;2023-03-26T03:20:13;8.50;99.90
33093;DHT22;19456;46.104;12.908;2023-03-26T03:22:41;8.30;99.90
33093;DHT22;19456;46.104;12.908;2023-03-26T03:25:07;8.40;99.90
33093;DHT22;19456;46.104;12.908;2023-03-26T03:27:42;8.50;99.90
33093;DHT22;19456;46.104;12.908;2023-03-26T03:30:08;8.50;99.90
33093;DHT22;19456;46.104;12.908;2023-03-26T03:32:35;8.50;99.90
33093;DHT22;19456;46.104;12.908;2023-03-26T03:35:00;8.60;99.90
33093;DHT22;19456;46.104;12.908;2023-03-26T03:37:26;8.70;99.90
33093;DHT22;19456;46.104;12.908;2023-03-26T03:39:51;8.80;99.90
33093;DHT22;19456;46.104;12.908;2023-03-26T03:42:17;8.70;99.90
33093;DHT22;19456;46.104;12.908;2023-03-26T03:44:43;8.50;99.90
33093;DHT22;19456;46.104;12.908;2023-03-26T03:47:08;8.40;99.90
33093;DHT22;19456;46.104;12.908;2023-03-26T03:49:38;8.30;99.90
33093;DHT22;19456;46.104;12.908;2023-03-26T03:52:04;8.30;99.90
33093;DHT22;19456;46.104;12.908;2023-03-26T03:54:30;8.20;99.90
33093;DHT22;19456;46.104;12.908;2023-03-26T03:56:55;8.30;99.90
33093;DHT22;19456;46.104;12.908;2023-03-26T03:59:21;8.30;99.90
33093;DHT22;19456;46.104;12.908;2023-03-26T04:01:47;8.20;99.90
33093;DHT22;19456;46.104;12.908;2023-03-26T04:04:15;8.30;99.90
33093;DHT22;19456;46.104;12.908;2023-03-26T04:06:40;8.30;99.90
33093;DHT22;19456;46.104;12.908;2023-03-26T04:09:06;8.20;99.90
33093;DHT22;19456;46.104;12.908;2023-03-26T04:11:33;8.20;99.90
33093;DHT22;19456;46.104;12.908;2023-03-26T04:13:58;8.30;99.90
33093;DHT22;19456;46.104;12.908;2023-03-26T04:16:24;8.40;99.90
33093;DHT22;19456;46.104;12.908;2023-03-26T04:18:50;8.40;99.90
33093;DHT22;19456;46.104;12.908;2023-03-26T04:21:15;8.40;99.90
33093;DHT22;19456;46.104;12.908;2023-03-26T04:23:41;8.40;99.90
33093;DHT22;19456;46.104;12.908;2023-03-26T04:26:07;8.40;99.90
33093;DHT22;19456;46.104;12.908;2023-03-26T04:28:44;8.40;99.90
33093;DHT22;19456;46.104;12.908;2023-03-26T04:31:13;8.40;99.90
33093;DHT22;19456;46.104;12.908;2023-03-26T04:33:40;8.40;99.90
33093;DHT22;19456;46.104;12.908;2023-03-26T04:36:11;8.30;99.90
33093;DHT22;19456;46.104;12.908;2023-03-26T04:38:41;8.40;99.90
33093;DHT22;19456;46.104;12.908;2023-03-26T04:41:08;8.40;99.90
33093;DHT22;19456;46.104;12.908;2023-03-26T04:43:35;8.30;99.90
33093;DHT22;19456;46.104;12.908;2023-03-26T04:46:01;8.40;99.90
33093;DHT22;19456;46.104;12.908;2023-03-26T04:48:29;8.30;99.90
33093;DHT22;19456;46.104;12.908;2023-03-26T04:50:55;8.30;99.90
33093;DHT22;19456;46.104;12.908;2023-03-26T04:53:20;8.30;99.90
33093;DHT22;19456;46.104;12.908;2023-03-26T04:55:52;8.20;99.90
33093;DHT22;19456;46.104;12.908;2023-03-26T04:58:20;8.20;99.90
33093;DHT22;19456;46.104;12.908;2023-03-26T05:00:46;8.20;99.90
33093;DHT22;19456;46.104;12.908;2023-03-26T05:03:12;8.20;99.90
33093;DHT22;19456;46.104;12.908;2023-03-26T05:05:38;8.30;99.90
33093;DHT22;19456;46.104;12.908;2023-03-26T05:08:04;8.40;99.90
33093;DHT22;19456;46.104;12.908;2023-03-26T05:10:30;8.40;99.90
33093;DHT22;19456;46.104;12.908;2023-03-26T05:12:55;8.40;99.90
33093;DHT22;19456;46.104;12.908;2023-03-26T05:15:21;8.40;99.90
33093;DHT22;19456;46.104;12.908;2023-03-26T05:17:47;8.50;99.90
33093;DHT22;19456;46.104;12.908;2023-03-26T05:20:17;8.50;99.90
33093;DHT22;19456;46.104;12.908;2023-03-26T05:22:45;8.40;99.90
33093;DHT22;19456;46.104;12.908;2023-03-26T05:25:10;8.40;99.90
33093;DHT22;19456;46.104;12.908;2023-03-26T05:27:36;8.30;99.90
33093;DHT22;19456;46.104;12.908;2023-03-26T05:30:03;8.40;99.90
33093;DHT22;19456;46.104;12.908;2023-03-26T05:32:29;8.40;99.90
33093;DHT22;19456;46.104;12.908;2023-03-26T05:34:55;8.50;99.90
33093;DHT22;19456;46.104;12.908;2023-03-26T05:37:20;8.50;99.90
33093;DHT22;19456;46.104;12.908;2023-03-26T05:39:55;8.50;99.90
33093;DHT22;19456;46.104;12.908;2023-03-26T05:42:20;8.60;99.90
33093;DHT22;19456;46.104;12.908;2023-03-26T05:44:46;8.70;99.90
33093;DHT22;19456;46.104;12.908;2023-03-26T05:47:12;8.80;99.90
33093;DHT22;19456;46.104;12.908;2023-03-26T05:49:37;8.90;99.90
33093;DHT22;19456;46.104;12.908;2023-03-26T05:52:03;8.90;99.90
33093;DHT22;19456;46.104;12.908;2023-03-26T05:54:28;9.00;99.90
33093;DHT22;19456;46.104;12.908;2023-03-26T05:56:54;9.10;99.90
33093;DHT22;19456;46.104;12.908;2023-03-26T05:59:21;9.10;99.90
33093;DHT22;19456;46.104;12.908;2023-03-26T06:01:47;9.20;99.90
33093;DHT22;19456;46.104;12.908;2023-03-26T06:04:13;9.20;99.90
33093;DHT22;19456;46.104;12.908;2023-03-26T06:06:40;9.20;99.90
33093;DHT22;19456;46.104;12.908;2023-03-26T06:09:05;9.40;99.90
33093;DHT22;19456;46.104;12.908;2023-03-26T06:11:32;9.40;99.90
33093;DHT22;19456;46.104;12.908;2023-03-26T06:13:57;9.50;99.90
33093;DHT22;19456;46.104;12.908;2023-03-26T06:16:23;9.60;99.90
33093;DHT22;19456;46.104;12.908;2023-03-26T06:18:49;9.70;99.90
33093;DHT22;19456;46.104;12.908;2023-03-26T06:21:16;9.70;99.90
33093;DHT22;19456;46.104;12.908;2023-03-26T06:23:44;9.70;99.90
33093;DHT22;19456;46.104;12.908;2023-03-26T06:26:13;9.80;99.90
33093;DHT22;19456;46.104;12.908;2023-03-26T06:28:38;9.80;99.90
33093;DHT22;19456;46.104;12.908;2023-03-26T06:31:04;9.70;99.90
33093;DHT22;19456;46.104;12.908;2023-03-26T06:33:30;9.70;99.90
33093;DHT22;19456;46.104;12.908;2023-03-26T06:35:55;9.70;99.90
33093;DHT22;19456;46.104;12.908;2023-03-26T06:38:22;9.80;99.90
33093;DHT22;19456;46.104;12.908;2023-03-26T06:40:47;9.90;99.90
33093;DHT22;19456;46.104;12.908;2023-03-26T06:43:13;9.80;99.90
33093;DHT22;19456;46.104;12.908;2023-03-26T06:45:38;9.90;99.90
33093;DHT22;19456;46.104;12.908;2023-03-26T06:48:04;9.90;99.90
33093;DHT22;19456;46.104;12.908;2023-03-26T06:50:30;9.90;99.90
33093;DHT22;19456;46.104;12.908;2023-03-26T06:52:56;10.10;99.90
33093;DHT22;19456;46.104;12.908;2023-03-26T06:55:22;10.10;99.90
33093;DHT22;19456;46.104;12.908;2023-03-26T06:57:48;10.20;99.90
33093;DHT22;19456;46.104;12.908;2023-03-26T07:00:14;10.40;99.90
33093;DHT22;19456;46.104;12.908;2023-03-26T07:02:40;10.30;99.90
33093;DHT22;19456;46.104;12.908;2023-03-26T07:05:05;10.40;99.90
33093;DHT22;19456;46.104;12.908;2023-03-26T07:07:31;10.30;99.90
33093;DHT22;19456;46.104;12.908;2023-03-26T07:09:57;10.40;99.90
33093;DHT22;19456;46.104;12.908;2023-03-26T07:12:24;10.40;99.90
33093;DHT22;19456;46.104;12.908;2023-03-26T07:14:50;10.50;99.90
33093;DHT22;19456;46.104;12.908;2023-03-26T07:17:15;10.60;99.90
33093;DHT22;19456;46.104;12.908;2023-03-26T07:19:41;10.70;99.90
33093;DHT22;19456;46.104;12.908;2023-03-26T07:22:07;10.80;99.90
33093;DHT22;19456;46.104;12.908;2023-03-26T07:24:37;11.00;99.90
33093;DHT22;19456;46.104;12.908;2023-03-26T07:29:45;11.10;99.90
33093;DHT22;19456;46.104;12.908;2023-03-26T07:34:50;11.40;99.90
33093;DHT22;19456;46.104;12.908;2023-03-26T07:40:00;11.70;99.90
33093;DHT22;19456;46.104;12.908;2023-03-26T07:47:34;11.90;99.90
33093;DHT22;19456;46.104;12.908;2023-03-26T07:50:01;12.00;99.90
33093;DHT22;19456;46.104;12.908;2023-03-26T07:52:27;11.90;99.90
33093;DHT22;19456;46.104;12.908;2023-03-26T07:54:53;12.00;99.90
33093;DHT22;19456;46.104;12.908;2023-03-26T08:00:07;12.00;99.90
33093;DHT22;19456;46.104;12.908;2023-03-26T08:15:36;12.70;99.90
33093;DHT22;19456;46.104;12.908;2023-03-26T08:20:43;12.50;99.90
33093;DHT22;19456;46.104;12.908;2023-03-26T08:31:03;12.80;99.90
33093;DHT22;19456;46.104;12.908;2023-03-26T08:33:29;13.00;99.90
33093;DHT22;19456;46.104;12.908;2023-03-26T08:35:55;13.20;99.90
33093;DHT22;19456;46.104;12.908;2023-03-26T08:38:20;13.30;99.90
33093;DHT22;19456;46.104;12.908;2023-03-26T08:48:26;14.00;99.90
33093;DHT22;19456;46.104;12.908;2023-03-26T08:56:05;14.60;99.90
33093;DHT22;19456;46.104;12.908;2023-03-26T09:27:37;15.90;99.90
33093;DHT22;19456;46.104;12.908;2023-03-26T09:35:13;16.20;99.90
33093;DHT22;19456;46.104;12.908;2023-03-26T09:40:19;16.30;99.90
33093;DHT22;19456;46.104;12.908;2023-03-26T09:42:54;16.40;99.90
33093;DHT22;19456;46.104;12.908;2023-03-26T10:02:58;16.90;99.90
33093;DHT22;19456;46.104;12.908;2023-03-26T10:18:45;17.60;99.90
33093;DHT22;19456;46.104;12.908;2023-03-26T10:21:17;17.70;99.90
33093;DHT22;19456;46.104;12.908;2023-03-26T10:24:04;17.70;99.90
33093;DHT22;19456;46.104;12.908;2023-03-26T10:29:13;17.70;99.90
33093;DHT22;19456;46.104;12.908;2023-03-26T10:32:27;17.70;99.90
33093;DHT22;19456;46.104;12.908;2023-03-26T10:42:48;18.10;99.90
33093;DHT22;19456;46.104;12.908;2023-03-26T10:52:46;18.80;99.90
33093;DHT22;19456;46.104;12.908;2023-03-26T10:55:15;19.00;99.90
33093;DHT22;19456;46.104;12.908;2023-03-26T10:57:58;19.10;99.90
33093;DHT22;19456;46.104;12.908;2023-03-26T11:00:26;19.00;99.90
33093;DHT22;19456;46.104;12.908;2023-03-26T11:15:38;19.00;99.90
33093;DHT22;19456;46.104;12.908;2023-03-26T11:18:14;19.20;99.90
33093;DHT22;19456;46.104;12.908;2023-03-26T11:26:06;18.50;99.90
33093;DHT22;19456;46.104;12.908;2023-03-26T11:33:41;19.80;99.90
33093;DHT22;19456;46.104;12.908;2023-03-26T11:36:12;20.50;99.90
33093;DHT22;19456;46.104;12.908;2023-03-26T11:38:43;21.20;99.90
33093;DHT22;19456;46.104;12.908;2023-03-26T11:41:11;21.50;99.90
33093;DHT22;19456;46.104;12.908;2023-03-26T11:43:38;21.90;99.90
33093;DHT22;19456;46.104;12.908;2023-03-26T11:46:11;22.10;99.90
33093;DHT22;19456;46.104;12.908;2023-03-26T11:48:45;22.20;99.90
33093;DHT22;19456;46.104;12.908;2023-03-26T11:54:09;21.40;99.90
33093;DHT22;19456;46.104;12.908;2023-03-26T11:56:57;21.40;99.90
33093;DHT22;19456;46.104;12.908;2023-03-26T12:04:37;21.70;99.90
33093;DHT22;19456;46.104;12.908;2023-03-26T12:09:50;22.00;99.90
33093;DHT22;19456;46.104;12.908;2023-03-26T12:12:16;21.60;99.90
33093;DHT22;19456;46.104;12.908;2023-03-26T12:14:42;21.80;99.90
33093;DHT22;19456;46.104;12.908;2023-03-26T12:17:11;21.90;99.90
33093;DHT22;19456;46.104;12.908;2023-03-26T12:19:40;21.80;99.90
33093;DHT22;19456;46.104;12.908;2023-03-26T12:22:25;21.60;99.90
33093;DHT22;19456;46.104;12.908;2023-03-26T12:25:00;21.50;99.90
33093;DHT22;19456;46.104;12.908;2023-03-26T12:27:26;22.10;99.90
33093;DHT22;19456;46.104;12.908;2023-03-26T12:30:37;22.80;99.90
33093;DHT22;19456;46.104;12.908;2023-03-26T12:32:47;22.70;99.90
33093;DHT22;19456;46.104;12.908;2023-03-26T12:35:14;22.40;99.90
33093;DHT22;19456;46.104;12.908;2023-03-26T12:37:43;21.60;99.90
33093;DHT22;19456;46.104;12.908;2023-03-26T12:40:29;21.00;99.90
33093;DHT22;19456;46.104;12.908;2023-03-26T12:42:58;20.50;99.90
33093;DHT22;19456;46.104;12.908;2023-03-26T12:45:38;20.10;99.90
33093;DHT22;19456;46.104;12.908;2023-03-26T12:48:04;20.00;99.90
33093;DHT22;19456;46.104;12.908;2023-03-26T12:55:50;19.10;99.90
33093;DHT22;19456;46.104;12.908;2023-03-26T13:19:21;18.20;99.90
33093;DHT22;19456;46.104;12.908;2023-03-26T13:22:03;18.20;99.90
33093;DHT22;19456;46.104;12.908;2023-03-26T13:27:15;18.30;99.90
33093;DHT22;19456;46.104;12.908;2023-03-26T13:29:52;18.00;99.90
33093;DHT22;19456;46.104;12.908;2023-03-26T13:32:34;17.90;99.90
33093;DHT22;19456;46.104;12.908;2023-03-26T13:45:51;17.40;99.90
33093;DHT22;19456;46.104;12.908;2023-03-26T13:48:20;17.40;99.90
33093;DHT22;19456;46.104;12.908;2023-03-26T13:50:55;17.50;99.90
33093;DHT22;19456;46.104;12.908;2023-03-26T13:53:33;17.70;99.90
33093;DHT22;19456;46.104;12.908;2023-03-26T13:56:00;17.60;99.90
33093;DHT22;19456;46.104;12.908;2023-03-26T13:59:00;17.40;99.90
33093;DHT22;19456;46.104;12.908;2023-03-26T14:01:19;17.30;99.90
33093;DHT22;19456;46.104;12.908;2023-03-26T14:04:06;17.10;99.90
33093;DHT22;19456;46.104;12.908;2023-03-26T14:09:09;16.80;99.90
33093;DHT22;19456;46.104;12.908;2023-03-26T14:11:54;16.70;99.90
33093;DHT22;19456;46.104;12.908;2023-03-26T14:14:35;16.70;99.90
33093;DHT22;19456;46.104;12.908;2023-03-26T14:17:03;16.60;99.90
33093;DHT22;19456;46.104;12.908;2023-03-26T14:24:44;16.30;99.90
33093;DHT22;19456;46.104;12.908;2023-03-26T14:27:23;16.30;99.90
33093;DHT22;19456;46.104;12.908;2023-03-26T14:32:28;16.20;99.90
33093;DHT22;19456;46.104;12.908;2023-03-26T14:45:47;15.80;99.90
33093;DHT22;19456;46.104;12.908;2023-03-26T14:53:45;15.70;99.90
33093;DHT22;19456;46.104;12.908;2023-03-26T15:01:42;15.70;99.90
33093;DHT22;19456;46.104;12.908;2023-03-26T15:09:48;15.30;99.90
33093;DHT22;19456;46.104;12.908;2023-03-26T15:23:41;15.30;99.90
33093;DHT22;19456;46.104;12.908;2023-03-26T15:25:39;15.30;99.90
33093;DHT22;19456;46.104;12.908;2023-03-26T15:33:28;15.20;99.90
33093;DHT22;19456;46.104;12.908;2023-03-26T15:49:18;15.10;99.90
33093;DHT22;19456;46.104;12.908;2023-03-26T15:54:20;15.10;99.90
33093;DHT22;19456;46.104;12.908;2023-03-26T16:01:59;15.00;99.90
33093;DHT22;19456;46.104;12.908;2023-03-26T16:04:34;14.90;99.90
33093;DHT22;19456;46.104;12.908;2023-03-26T16:12:25;14.80;99.90
33093;DHT22;19456;46.104;12.908;2023-03-26T16:20:32;14.70;99.90
33093;DHT22;19456;46.104;12.908;2023-03-26T16:22:59;14.70;99.90
33093;DHT22;19456;46.104;12.908;2023-03-26T16:25:31;14.60;99.90
33093;DHT22;19456;46.104;12.908;2023-03-26T16:28:05;14.60;99.90
33093;DHT22;19456;46.104;12.908;2023-03-26T16:30:32;14.50;99.90
33093;DHT22;19456;46.104;12.908;2023-03-26T16:33:43;14.40;99.90
33093;DHT22;19456;46.104;12.908;2023-03-26T16:41:31;14.30;99.90
33093;DHT22;19456;46.104;12.908;2023-03-26T16:46:35;14.10;99.90
33093;DHT22;19456;46.104;12.908;2023-03-26T16:54:27;13.30;99.90
33093;DHT22;19456;46.104;12.908;2023-03-26T16:59:37;13.10;99.90
33093;DHT22;19456;46.104;12.908;2023-03-26T17:04:50;12.70;99.90
33093;DHT22;19456;46.104;12.908;2023-03-26T17:09:46;12.50;99.90
33093;DHT22;19456;46.104;12.908;2023-03-26T17:25:17;11.90;99.90
33093;DHT22;19456;46.104;12.908;2023-03-26T17:27:45;11.80;99.90
33093;DHT22;19456;46.104;12.908;2023-03-26T17:32:51;11.60;99.90
33093;DHT22;19456;46.104;12.908;2023-03-26T17:35:33;11.60;99.90
33093;DHT22;19456;46.104;12.908;2023-03-26T17:37:59;11.60;99.90
33093;DHT22;19456;46.104;12.908;2023-03-26T17:40:28;11.50;99.90
33093;DHT22;19456;46.104;12.908;2023-03-26T17:43:02;11.70;99.90
33093;DHT22;19456;46.104;12.908;2023-03-26T17:45:32;11.70;99.90
33093;DHT22;19456;46.104;12.908;2023-03-26T17:48:00;11.60;99.90
33093;DHT22;19456;46.104;12.908;2023-03-26T17:50:30;11.50;99.90
33093;DHT22;19456;46.104;12.908;2023-03-26T17:52:57;11.40;99.90
33093;DHT22;19456;46.104;12.908;2023-03-26T17:55:27;11.40;99.90
33093;DHT22;19456;46.104;12.908;2023-03-26T17:57:59;11.30;99.90
33093;DHT22;19456;46.104;12.908;2023-03-26T18:00:32;11.20;99.90
33093;DHT22;19456;46.104;12.908;2023-03-26T18:03:04;11.20;99.90
33093;DHT22;19456;46.104;12.908;2023-03-26T18:05:36;11.10;99.90
33093;DHT22;19456;46.104;12.908;2023-03-26T18:17:02;10.60;99.90
33093;DHT22;19456;46.104;12.908;2023-03-26T18:19:21;10.70;99.90
33093;DHT22;19456;46.104;12.908;2023-03-26T18:21:48;10.60;99.90
33093;DHT22;19456;46.104;12.908;2023-03-26T18:24:18;10.60;99.90
33093;DHT22;19456;46.104;12.908;2023-03-26T18:26:48;10.50;99.90
33093;DHT22;19456;46.104;12.908;2023-03-26T18:29:20;10.40;99.90
33093;DHT22;19456;46.104;12.908;2023-03-26T18:31:58;10.40;99.90
33093;DHT22;19456;46.104;12.908;2023-03-26T18:34:25;10.30;99.90
33093;DHT22;19456;46.104;12.908;2023-03-26T18:39:36;10.40;99.90
33093;DHT22;19456;46.104;12.908;2023-03-26T18:42:01;10.40;99.90
33093;DHT22;19456;46.104;12.908;2023-03-26T18:44:27;10.40;99.90
33093;DHT22;19456;46.104;12.908;2023-03-26T18:46:52;10.50;99.90
33093;DHT22;19456;46.104;12.908;2023-03-26T18:49:19;10.60;99.90
33093;DHT22;19456;46.104;12.908;2023-03-26T18:51:46;10.60;99.90
33093;DHT22;19456;46.104;12.908;2023-03-26T18:54:13;10.70;99.90
33093;DHT22;19456;46.104;12.908;2023-03-26T18:56:41;10.80;99.90
33093;DHT22;19456;46.104;12.908;2023-03-26T19:01:43;10.90;99.90
33093;DHT22;19456;46.104;12.908;2023-03-26T19:04:09;10.80;99.90
33093;DHT22;19456;46.104;12.908;2023-03-26T19:06:37;10.80;99.90
33093;DHT22;19456;46.104;12.908;2023-03-26T19:09:04;10.70;99.90
33093;DHT22;19456;46.104;12.908;2023-03-26T19:11:30;10.60;99.90
33093;DHT22;19456;46.104;12.908;2023-03-26T19:14:04;10.50;99.90
33093;DHT22;19456;46.104;12.908;2023-03-26T19:16:31;10.50;99.90
33093;DHT22;19456;46.104;12.908;2023-03-26T19:19:04;10.40;99.90
33093;DHT22;19456;46.104;12.908;2023-03-26T19:21:30;10.60;99.90
33093;DHT22;19456;46.104;12.908;2023-03-26T19:23:56;10.70;99.90
33093;DHT22;19456;46.104;12.908;2023-03-26T19:26:22;10.70;99.90
33093;DHT22;19456;46.104;12.908;2023-03-26T19:28:48;10.80;99.90
33093;DHT22;19456;46.104;12.908;2023-03-26T19:33:58;10.90;99.90
33093;DHT22;19456;46.104;12.908;2023-03-26T19:36:33;10.90;99.90
33093;DHT22;19456;46.104;12.908;2023-03-26T19:39:09;10.90;99.90
33093;DHT22;19456;46.104;12.908;2023-03-26T19:41:42;10.90;99.90
33093;DHT22;19456;46.104;12.908;2023-03-26T19:44:18;10.90;99.90
33093;DHT22;19456;46.104;12.908;2023-03-26T19:46:46;10.80;99.90
33093;DHT22;19456;46.104;12.908;2023-03-26T19:49:28;10.90;99.90
33093;DHT22;19456;46.104;12.908;2023-03-26T19:52:12;10.80;99.90
33093;DHT22;19456;46.104;12.908;2023-03-26T19:57:14;10.80;99.90
33093;DHT22;19456;46.104;12.908;2023-03-26T19:59:40;10.70;99.90
33093;DHT22;19456;46.104;12.908;2023-03-26T20:02:11;10.70;99.90
33093;DHT22;19456;46.104;12.908;2023-03-26T20:04:39;10.70;99.90
33093;DHT22;19456;46.104;12.908;2023-03-26T20:07:09;10.70;99.90
33093;DHT22;19456;46.104;12.908;2023-03-26T20:09:35;10.70;99.90
33093;DHT22;19456;46.104;12.908;2023-03-26T20:12:00;10.70;99.90
33093;DHT22;19456;46.104;12.908;2023-03-26T20:14:26;10.60;99.90
33093;DHT22;19456;46.104;12.908;2023-03-26T20:16:51;10.60;99.90
33093;DHT22;19456;46.104;12.908;2023-03-26T20:19:17;10.60;99.90
33093;DHT22;19456;46.104;12.908;2023-03-26T20:21:43;10.60;99.90
33093;DHT22;19456;46.104;12.908;2023-03-26T20:24:13;10.60;99.90
33093;DHT22;19456;46.104;12.908;2023-03-26T20:26:39;10.60;99.90
33093;DHT22;19456;46.104;12.908;2023-03-26T20:29:04;10.30;99.90
33093;DHT22;19456;46.104;12.908;2023-03-26T20:31:30;10.20;99.90
33093;DHT22;19456;46.104;12.908;2023-03-26T20:33:56;10.10;99.90
33093;DHT22;19456;46.104;12.908;2023-03-26T20:36:21;10.00;99.90
33093;DHT22;19456;46.104;12.908;2023-03-26T20:38:47;10.10;99.90
33093;DHT22;19456;46.104;12.908;2023-03-26T20:41:14;10.00;99.90
33093;DHT22;19456;46.104;12.908;2023-03-26T20:43:40;9.80;99.90
33093;DHT22;19456;46.104;12.908;2023-03-26T20:46:09;9.70;99.90
33093;DHT22;19456;46.104;12.908;2023-03-26T20:48:37;9.70;99.90
33093;DHT22;19456;46.104;12.908;2023-03-26T20:51:03;9.70;99.90
33093;DHT22;19456;46.104;12.908;2023-03-26T20:53:29;9.60;99.90
33093;DHT22;19456;46.104;12.908;2023-03-26T20:55:55;9.60;99.90
33093;DHT22;19456;46.104;12.908;2023-03-26T20:58:20;9.70;99.90
33093;DHT22;19456;46.104;12.908;2023-03-26T21:00:46;9.70;99.90
33093;DHT22;19456;46.104;12.908;2023-03-26T21:03:12;9.60;99.90
33093;DHT22;19456;46.104;12.908;2023-03-26T21:05:39;9.50;99.90
33093;DHT22;19456;46.104;12.908;2023-03-26T21:08:05;9.50;99.90
33093;DHT22;19456;46.104;12.908;2023-03-26T21:10:31;9.60;99.90
33093;DHT22;19456;46.104;12.908;2023-03-26T21:13:02;9.60;99.90
33093;DHT22;19456;46.104;12.908;2023-03-26T21:15:28;9.80;99.90
33093;DHT22;19456;46.104;12.908;2023-03-26T21:17:54;9.70;99.90
33093;DHT22;19456;46.104;12.908;2023-03-26T21:20:21;9.60;99.90
33093;DHT22;19456;46.104;12.908;2023-03-26T21:25:37;9.90;99.90
33093;DHT22;19456;46.104;12.908;2023-03-26T21:30:45;10.00;99.90
33093;DHT22;19456;46.104;12.908;2023-03-26T21:33:11;10.00;99.90
33093;DHT22;19456;46.104;12.908;2023-03-26T21:35:38;10.10;99.90
33093;DHT22;19456;46.104;12.908;2023-03-26T21:38:04;10.10;99.90
33093;DHT22;19456;46.104;12.908;2023-03-26T21:40:29;10.10;99.90